createdAt,value
2018-07-15T00:00:32.397Z,99.90
2018-07-15T00:02:59.264Z,99.90
2018-07-15T00:05:26.160Z,99.90
2018-07-15T00:07:53.067Z,99.90
2018-07-15T00:10:20.028Z,99.90
2018-07-15T00:12:46.903Z,99.90
2018-07-15T00:15:14.144Z,99.90
2018-07-15T00:17:41.163Z,99.90
2018-07-15T00:20:08.040Z,99.90
2018-07-15T00:22:34.952Z,99.90
2018-07-15T00:25:01.820Z,99.90
2018-07-15T00:27:28.735Z,99.90
2018-07-15T00:29:55.603Z,99.90
2018-07-15T00:32:22.539Z,99.90
2018-07-15T00:34:49.412Z,99.90
2018-07-15T00:37:16.296Z,99.90
2018-07-15T00:39:43.216Z,99.90
2018-07-15T00:42:10.083Z,99.90
2018-07-15T00:44:36.995Z,99.90
2018-07-15T00:47:03.864Z,99.90
2018-07-15T00:49:30.802Z,99.90
2018-07-15T00:51:57.684Z,99.90
2018-07-15T00:54:24.611Z,99.90
2018-07-15T00:56:51.600Z,99.90
2018-07-15T00:59:18.471Z,99.90
2018-07-15T01:01:45.428Z,99.90
2018-07-15T01:04:12.296Z,99.90
2018-07-15T01:06:40.347Z,99.90
2018-07-15T01:09:08.549Z,99.90
2018-07-15T01:11:36.318Z,99.90
2018-07-15T01:14:03.204Z,99.90
2018-07-15T01:16:30.123Z,99.90
2018-07-15T01:18:56.993Z,99.90
2018-07-15T01:21:23.938Z,99.90
2018-07-15T01:23:51.119Z,99.90
2018-07-15T01:26:17.991Z,99.90
2018-07-15T01:28:44.943Z,99.90
2018-07-15T01:31:11.807Z,99.90
2018-07-15T01:33:38.724Z,99.90
2018-07-15T01:36:05.591Z,99.90
2018-07-15T01:38:32.459Z,99.90
2018-07-15T01:40:59.679Z,99.90
2018-07-15T01:43:26.543Z,99.90
2018-07-15T01:45:53.516Z,99.90
2018-07-15T01:48:20.419Z,99.90
2018-07-15T01:50:47.545Z,99.90
2018-07-15T01:53:14.479Z,99.90
2018-07-15T01:55:41.352Z,99.90
2018-07-15T01:58:08.231Z,99.90
2018-07-15T02:00:35.148Z,99.90
2018-07-15T02:03:02.016Z,99.90
2018-07-15T02:05:28.935Z,99.90
2018-07-15T02:07:55.813Z,99.90
2018-07-15T02:10:22.727Z,99.90
2018-07-15T02:12:49.675Z,99.90
2018-07-15T02:15:16.621Z,99.90
2018-07-15T02:17:43.603Z,99.90
2018-07-15T02:20:10.518Z,99.90
2018-07-15T02:22:37.387Z,99.90
2018-07-15T02:25:04.304Z,99.90
2018-07-15T02:27:31.295Z,99.90
2018-07-15T02:29:58.207Z,99.90
2018-07-15T02:32:25.080Z,99.90
2018-07-15T02:34:51.996Z,99.90
2018-07-15T02:37:19.083Z,99.90
2018-07-15T02:39:45.999Z,99.90
2018-07-15T02:42:12.871Z,99.90
2018-07-15T02:44:39.795Z,99.90
2018-07-15T02:49:33.569Z,99.90
2018-07-15T02:52:00.447Z,99.90
2018-07-15T02:54:27.363Z,99.90
2018-07-15T02:56:54.240Z,99.90
2018-07-15T02:59:21.120Z,99.90
2018-07-15T03:01:48.060Z,99.90
2018-07-15T03:04:14.931Z,99.90
2018-07-15T03:06:41.804Z,99.90
2018-07-15T03:09:10.271Z,99.90
2018-07-15T03:11:37.471Z,99.90
2018-07-15T03:14:04.466Z,99.90
2018-07-15T03:16:31.344Z,99.90
2018-07-15T03:18:58.255Z,99.90
2018-07-15T03:21:25.173Z,99.90
2018-07-15T03:23:52.043Z,99.90
2018-07-15T03:26:18.964Z,99.90
2018-07-15T03:28:45.827Z,99.90
2018-07-15T03:31:12.711Z,99.90
2018-07-15T03:33:39.631Z,99.90
2018-07-15T03:36:06.504Z,99.90
2018-07-15T03:38:33.420Z,99.90
2018-07-15T03:41:00.338Z,99.90
2018-07-15T03:43:27.216Z,99.90
2018-07-15T03:45:54.140Z,99.90
2018-07-15T03:48:21.052Z,99.90
2018-07-15T03:50:47.927Z,99.90
2018-07-15T03:53:14.843Z,99.90
2018-07-15T03:55:42.032Z,99.90
2018-07-15T03:58:09.228Z,99.90
2018-07-15T04:00:36.151Z,99.90
2018-07-15T04:03:03.030Z,99.90
2018-07-15T04:05:29.975Z,99.90
2018-07-15T04:07:56.846Z,99.90
2018-07-15T04:10:23.795Z,99.90
2018-07-15T04:12:50.735Z,99.90
2018-07-15T04:15:17.779Z,99.90
2018-07-15T04:17:48.419Z,99.90
2018-07-15T04:20:15.330Z,99.90
2018-07-15T04:22:42.204Z,99.90
2018-07-15T04:25:09.131Z,99.90
2018-07-15T04:27:35.999Z,99.90
2018-07-15T04:30:02.867Z,99.90
2018-07-15T04:32:29.796Z,99.90
2018-07-15T04:34:56.666Z,99.90
2018-07-15T04:37:23.545Z,99.90
2018-07-15T04:39:50.449Z,99.90
2018-07-15T04:42:17.311Z,99.90
2018-07-15T04:44:44.224Z,99.90
2018-07-15T04:47:11.144Z,99.90
2018-07-15T04:49:38.060Z,99.90
2018-07-15T04:52:05.083Z,99.90
2018-07-15T04:54:32.001Z,99.90
2018-07-15T04:59:25.802Z,99.90
2018-07-15T05:01:52.688Z,99.90
2018-07-15T05:04:19.602Z,99.90
2018-07-15T05:06:46.471Z,99.90
2018-07-15T05:09:13.375Z,99.90
2018-07-15T05:11:40.288Z,99.90
2018-07-15T05:14:07.879Z,99.90
2018-07-15T05:16:35.122Z,99.90
2018-07-15T05:19:02.241Z,99.90
2018-07-15T05:21:29.184Z,99.90
2018-07-15T05:23:56.051Z,99.90
2018-07-15T05:26:22.923Z,99.90
2018-07-15T05:28:49.888Z,99.90
2018-07-15T05:31:16.763Z,99.90
2018-07-15T05:33:43.679Z,99.90
2018-07-15T05:36:10.551Z,99.90
2018-07-15T05:38:37.636Z,99.90
2018-07-15T05:41:04.756Z,99.90
2018-07-15T05:43:31.670Z,99.90
2018-07-15T05:45:58.588Z,99.90
2018-07-15T05:48:25.581Z,99.90
2018-07-15T05:50:52.496Z,99.90
2018-07-15T05:53:19.372Z,99.90
2018-07-15T05:55:46.883Z,99.90
2018-07-15T05:58:13.875Z,99.90
2018-07-15T06:00:40.790Z,99.90
2018-07-15T06:03:07.655Z,99.90
2018-07-15T06:05:34.577Z,99.90
2018-07-15T06:08:01.499Z,99.90
2018-07-15T06:10:28.372Z,99.90
2018-07-15T06:12:55.307Z,99.90
2018-07-15T06:15:22.264Z,99.90
2018-07-15T06:17:49.128Z,99.90
2018-07-15T06:20:16.045Z,99.90
2018-07-15T06:22:43.276Z,99.90
2018-07-15T06:25:10.172Z,99.90
2018-07-15T06:27:37.043Z,99.90
2018-07-15T06:30:03.952Z,99.90
2018-07-15T06:32:30.860Z,99.90
2018-07-15T06:34:57.772Z,99.90
2018-07-15T06:37:24.645Z,99.90
2018-07-15T06:39:51.651Z,99.90
2018-07-15T06:42:18.519Z,98.50
2018-07-15T06:44:45.699Z,96.70
2018-07-15T06:47:12.572Z,96.80
2018-07-15T06:49:39.491Z,96.10
2018-07-15T06:52:06.367Z,95.20
2018-07-15T06:54:33.242Z,94.20
2018-07-15T06:57:00.164Z,93.10
2018-07-15T06:59:27.034Z,92.20
2018-07-15T07:01:53.955Z,92.00
2018-07-15T07:04:20.867Z,91.20
2018-07-15T07:06:47.731Z,90.40
2018-07-15T07:09:15.248Z,89.00
2018-07-15T07:11:42.171Z,88.80
2018-07-15T07:14:09.177Z,89.10
2018-07-15T07:19:02.919Z,87.20
2018-07-15T07:21:29.850Z,85.50
2018-07-15T07:23:56.743Z,84.20
2018-07-15T07:26:23.640Z,82.80
2018-07-15T07:28:50.633Z,80.70
2018-07-15T07:31:17.454Z,79.30
2018-07-15T07:33:44.404Z,78.60
2018-07-15T07:36:11.343Z,76.40
2018-07-15T07:38:38.266Z,75.60
2018-07-15T07:41:05.157Z,76.30
2018-07-15T07:43:32.075Z,75.10
2018-07-15T07:45:58.943Z,74.00
2018-07-15T07:48:25.861Z,72.80
2018-07-15T07:50:52.727Z,71.50
2018-07-15T07:53:19.682Z,73.40
2018-07-15T07:55:46.595Z,73.80
2018-07-15T07:58:13.495Z,72.50
2018-07-15T08:00:40.404Z,70.70
2018-07-15T08:03:07.276Z,70.10
2018-07-15T08:05:34.212Z,67.70
2018-07-15T08:08:01.288Z,66.50
2018-07-15T08:10:28.199Z,65.10
2018-07-15T08:12:55.324Z,65.30
2018-07-15T08:15:22.302Z,65.50
2018-07-15T08:17:49.181Z,63.30
2018-07-15T08:20:16.092Z,62.50
2018-07-15T08:22:43.356Z,62.30
2018-07-15T08:25:10.163Z,61.70
2018-07-15T08:27:37.076Z,60.80
2018-07-15T08:30:09.671Z,60.10
2018-07-15T08:32:36.596Z,59.50
2018-07-15T08:35:03.520Z,58.70
2018-07-15T08:37:30.391Z,58.00
2018-07-15T08:39:57.260Z,57.50
2018-07-15T08:42:24.175Z,56.40
2018-07-15T08:44:51.043Z,55.80
2018-07-15T08:47:17.983Z,55.30
2018-07-15T08:49:44.868Z,55.00
2018-07-15T08:52:12.166Z,55.50
2018-07-15T08:54:39.045Z,54.90
2018-07-15T08:57:05.951Z,54.20
2018-07-15T08:59:32.877Z,53.20
2018-07-15T09:01:59.744Z,52.50
2018-07-15T09:04:26.620Z,52.70
2018-07-15T09:06:53.764Z,51.00
2018-07-15T09:09:20.627Z,51.30
2018-07-15T09:11:47.572Z,50.80
2018-07-15T09:14:14.482Z,50.40
2018-07-15T09:16:41.440Z,51.50
2018-07-15T09:19:08.305Z,52.10
2018-07-15T09:21:35.225Z,52.30
2018-07-15T09:24:19.988Z,52.50
2018-07-15T09:26:46.896Z,51.90
2018-07-15T09:29:13.812Z,51.10
2018-07-15T09:31:40.709Z,50.60
2018-07-15T09:34:07.577Z,49.80
2018-07-15T09:36:34.491Z,49.70
2018-07-15T09:39:01.409Z,48.90
2018-07-15T09:41:28.271Z,48.50
2018-07-15T09:43:55.179Z,47.20
2018-07-15T09:46:22.096Z,46.20
2018-07-15T09:48:49.003Z,44.80
2018-07-15T09:51:15.864Z,44.90
2018-07-15T09:53:42.789Z,45.10
2018-07-15T09:56:09.683Z,44.40
2018-07-15T09:58:36.594Z,43.80
2018-07-15T10:01:03.575Z,43.80
2018-07-15T10:03:30.444Z,43.30
2018-07-15T10:05:57.360Z,42.30
2018-07-15T10:08:24.227Z,42.50
2018-07-15T10:10:51.367Z,42.90
2018-07-15T10:13:18.284Z,43.70
2018-07-15T10:15:45.407Z,43.30
2018-07-15T10:18:12.347Z,42.60
2018-07-15T10:20:39.252Z,43.20
2018-07-15T10:23:06.161Z,43.30
2018-07-15T10:25:33.075Z,42.20
2018-07-15T10:28:00.025Z,41.80
2018-07-15T10:30:26.900Z,42.10
2018-07-15T10:32:53.816Z,42.60
2018-07-15T10:35:20.689Z,42.20
2018-07-15T10:37:47.888Z,42.00
2018-07-15T10:40:14.865Z,41.20
2018-07-15T10:42:41.736Z,41.20
2018-07-15T10:45:08.651Z,41.10
2018-07-15T10:47:35.524Z,40.70
2018-07-15T10:50:02.416Z,39.80
2018-07-15T10:52:29.336Z,39.10
2018-07-15T10:54:56.252Z,39.30
2018-07-15T10:57:23.124Z,39.10
2018-07-15T10:59:50.024Z,40.00
2018-07-15T11:02:16.919Z,39.10
2018-07-15T11:04:43.831Z,39.70
2018-07-15T11:07:10.700Z,39.30
2018-07-15T11:09:37.571Z,40.00
2018-07-15T11:12:04.744Z,38.10
2018-07-15T11:14:31.645Z,37.90
2018-07-15T11:16:58.902Z,37.10
2018-07-15T11:19:25.803Z,37.50
2018-07-15T11:21:52.842Z,37.20
2018-07-15T11:24:19.727Z,37.00
2018-07-15T11:26:46.604Z,36.90
2018-07-15T11:29:13.515Z,35.60
2018-07-15T11:31:40.683Z,36.00
2018-07-15T11:34:07.552Z,35.20
2018-07-15T11:36:34.467Z,35.40
2018-07-15T11:39:01.348Z,34.90
2018-07-15T11:41:28.552Z,35.80
2018-07-15T11:43:55.463Z,35.40
2018-07-15T11:46:22.331Z,34.90
2018-07-15T11:48:49.240Z,34.90
2018-07-15T11:51:16.150Z,34.60
2018-07-15T11:53:43.027Z,34.40
2018-07-15T11:56:09.943Z,34.90
2018-07-15T11:58:36.812Z,35.60
2018-07-15T12:01:04.429Z,35.60
2018-07-15T12:03:31.291Z,35.50
2018-07-15T12:05:58.212Z,34.50
2018-07-15T12:08:25.139Z,34.70
2018-07-15T12:10:52.879Z,34.10
2018-07-15T12:13:19.755Z,34.20
2018-07-15T12:15:46.736Z,35.00
2018-07-15T12:18:13.607Z,34.00
2018-07-15T12:20:40.524Z,34.50
2018-07-15T12:23:07.371Z,34.00
2018-07-15T12:25:34.264Z,33.60
2018-07-15T12:28:01.176Z,33.20
2018-07-15T12:30:28.044Z,33.40
2018-07-15T12:32:54.911Z,32.30
2018-07-15T12:35:21.858Z,32.50
2018-07-15T12:37:48.740Z,32.00
2018-07-15T12:40:15.660Z,32.90
2018-07-15T12:42:42.571Z,34.20
2018-07-15T12:45:09.435Z,33.40
2018-07-15T12:47:36.367Z,32.70
2018-07-15T12:50:03.259Z,33.00
2018-07-15T12:52:30.172Z,32.30
2018-07-15T12:54:57.128Z,32.90
2018-07-15T12:57:23.999Z,32.00
2018-07-15T13:02:17.783Z,33.70
2018-07-15T13:04:44.655Z,33.80
2018-07-15T13:07:11.571Z,32.90
2018-07-15T13:12:05.411Z,33.20
2018-07-15T13:14:32.288Z,32.90
2018-07-15T13:16:59.247Z,32.50
2018-07-15T13:19:26.160Z,33.20
2018-07-15T13:21:53.079Z,32.60
2018-07-15T13:24:19.950Z,31.30
2018-07-15T13:26:46.864Z,31.00
2018-07-15T13:29:13.732Z,32.20
2018-07-15T13:31:40.680Z,33.70
2018-07-15T13:34:07.594Z,33.90
2018-07-15T13:36:34.470Z,33.70
2018-07-15T13:39:01.387Z,33.70
2018-07-15T13:41:28.433Z,33.20
2018-07-15T13:43:55.275Z,32.80
2018-07-15T13:46:22.336Z,31.80
2018-07-15T13:48:49.351Z,32.40
2018-07-15T13:51:16.260Z,33.80
2018-07-15T13:53:43.175Z,32.90
2018-07-15T13:56:10.043Z,33.70
2018-07-15T13:58:37.003Z,33.00
2018-07-15T14:01:03.916Z,33.00
2018-07-15T14:03:30.787Z,32.50
2018-07-15T14:05:57.699Z,33.50
2018-07-15T14:08:24.559Z,33.90
2018-07-15T14:10:51.463Z,33.80
2018-07-15T14:13:18.363Z,34.30
2018-07-15T14:15:45.267Z,34.00
2018-07-15T14:18:12.220Z,33.20
2018-07-15T14:20:39.095Z,33.40
2018-07-15T14:23:06.168Z,33.70
2018-07-15T14:25:33.156Z,33.50
2018-07-15T14:28:00.136Z,33.70
2018-07-15T14:30:26.991Z,33.70
2018-07-15T14:32:53.863Z,33.40
2018-07-15T14:35:20.783Z,34.30
2018-07-15T14:37:47.683Z,35.40
2018-07-15T14:40:14.555Z,37.10
2018-07-15T14:42:41.552Z,38.20
2018-07-15T14:45:08.744Z,36.90
2018-07-15T14:47:35.668Z,37.20
2018-07-15T14:50:02.564Z,37.40
2018-07-15T14:52:29.487Z,36.30
2018-07-15T14:54:56.367Z,36.40
2018-07-15T14:57:23.280Z,35.90
2018-07-15T14:59:50.152Z,36.00
2018-07-15T15:02:17.266Z,35.50
2018-07-15T15:04:45.134Z,35.20
2018-07-15T15:07:13.616Z,35.90
2018-07-15T15:09:40.854Z,36.10
2018-07-15T15:12:08.577Z,35.90
2018-07-15T15:14:35.486Z,35.80
2018-07-15T15:17:02.395Z,36.10
2018-07-15T15:19:29.312Z,35.70
2018-07-15T15:24:23.150Z,36.00
2018-07-15T15:26:50.027Z,36.50
2018-07-15T15:29:16.946Z,36.20
2018-07-15T15:31:43.825Z,36.60
2018-07-15T15:34:10.776Z,37.70
2018-07-15T15:36:37.641Z,39.00
2018-07-15T15:39:04.916Z,39.90
2018-07-15T15:41:31.859Z,39.50
2018-07-15T15:43:58.731Z,37.30
2018-07-15T15:46:25.708Z,37.20
2018-07-15T15:48:52.579Z,37.90
2018-07-15T15:51:19.491Z,37.70
2018-07-15T15:53:46.404Z,37.40
2018-07-15T15:56:13.325Z,37.10
2018-07-15T15:58:40.192Z,36.80
2018-07-15T16:01:07.110Z,37.00
2018-07-15T16:03:34.011Z,36.70
2018-07-15T16:06:01.248Z,36.70
2018-07-15T16:08:28.408Z,36.70
2018-07-15T16:10:55.283Z,37.10
2018-07-15T16:13:22.243Z,37.30
2018-07-15T16:15:49.160Z,37.90
2018-07-15T16:18:16.075Z,37.80
2018-07-15T16:20:42.991Z,38.10
2018-07-15T16:23:09.948Z,38.50
2018-07-15T16:25:36.871Z,38.40
2018-07-15T16:28:03.940Z,39.30
2018-07-15T16:30:30.851Z,39.20
2018-07-15T16:32:57.775Z,40.30
2018-07-15T16:35:24.687Z,41.10
2018-07-15T16:37:51.964Z,41.90
2018-07-15T16:40:18.832Z,42.50
2018-07-15T16:42:45.750Z,44.00
2018-07-15T16:45:12.664Z,43.60
2018-07-15T16:47:39.598Z,44.00
2018-07-15T16:50:06.471Z,43.90
2018-07-15T16:52:33.386Z,43.80
2018-07-15T16:55:00.356Z,43.60
2018-07-15T16:57:27.272Z,43.50
2018-07-15T16:59:54.144Z,43.90
2018-07-15T17:02:21.059Z,43.80
2018-07-15T17:04:47.932Z,44.20
2018-07-15T17:07:14.848Z,44.70
2018-07-15T17:09:41.720Z,45.40
2018-07-15T17:12:08.640Z,45.70
2018-07-15T17:14:35.512Z,45.90
2018-07-15T17:17:02.472Z,46.00
2018-07-15T17:19:29.344Z,45.80
2018-07-15T17:21:56.271Z,45.80
2018-07-15T17:24:23.143Z,45.50
2018-07-15T17:26:50.137Z,45.60
2018-07-15T17:29:17.567Z,45.90
2018-07-15T17:31:44.435Z,45.60
2018-07-15T17:34:11.348Z,45.90
2018-07-15T17:36:38.243Z,46.20
2018-07-15T17:39:05.299Z,46.20
2018-07-15T17:41:32.172Z,46.30
2018-07-15T17:43:59.088Z,46.80
2018-07-15T17:46:25.972Z,46.50
2018-07-15T17:48:52.883Z,47.10
2018-07-15T17:51:19.799Z,47.20
2018-07-15T17:53:46.671Z,47.10
2018-07-15T17:56:13.588Z,47.70
2018-07-15T17:58:40.474Z,47.80
2018-07-15T18:01:07.504Z,47.90
2018-07-15T18:03:34.727Z,48.30
2018-07-15T18:06:01.592Z,48.40
2018-07-15T18:08:28.527Z,48.60
2018-07-15T18:10:55.395Z,49.00
2018-07-15T18:13:22.271Z,49.20
2018-07-15T18:15:49.208Z,49.30
2018-07-15T18:18:16.156Z,49.70
2018-07-15T18:20:43.372Z,50.00
2018-07-15T18:23:10.275Z,50.30
2018-07-15T18:25:37.491Z,50.30
2018-07-15T18:28:04.356Z,50.40
2018-07-15T18:30:31.283Z,50.60
2018-07-15T18:32:58.188Z,50.90
2018-07-15T18:35:25.065Z,51.00
2018-07-15T18:37:51.987Z,51.20
2018-07-15T18:40:18.888Z,51.30
2018-07-15T18:42:45.836Z,51.40
2018-07-15T18:45:12.716Z,51.50
2018-07-15T18:47:39.627Z,51.90
2018-07-15T18:50:06.498Z,52.00
2018-07-15T18:52:33.419Z,52.10
2018-07-15T18:55:00.290Z,52.10
2018-07-15T18:57:27.311Z,52.60
2018-07-15T18:59:54.219Z,52.50
2018-07-15T19:02:21.079Z,52.90
2018-07-15T19:04:47.991Z,53.30
2018-07-15T19:07:14.868Z,53.50
2018-07-15T19:09:41.905Z,53.40
2018-07-15T19:12:09.246Z,53.80
2018-07-15T19:14:36.160Z,54.00
2018-07-15T19:17:03.059Z,54.20
2018-07-15T19:19:29.975Z,55.10
2018-07-15T19:21:56.846Z,54.50
2018-07-15T19:24:23.779Z,54.90
2018-07-15T19:26:50.977Z,55.00
2018-07-15T19:29:17.871Z,55.30
2018-07-15T19:31:44.821Z,55.70
2018-07-15T19:34:11.734Z,57.20
2018-07-15T19:36:38.647Z,56.50
2018-07-15T19:39:06.045Z,56.70
2018-07-15T19:41:32.914Z,56.80
2018-07-15T19:43:59.819Z,57.30
2018-07-15T19:46:26.732Z,57.60
2018-07-15T19:48:53.663Z,58.00
2018-07-15T19:51:20.535Z,57.90
2018-07-15T19:53:47.419Z,58.70
2018-07-15T19:56:14.327Z,58.30
2018-07-15T19:58:41.232Z,58.40
2018-07-15T20:01:08.178Z,58.50
2018-07-15T20:03:35.035Z,58.80
2018-07-15T20:06:01.943Z,58.80
2018-07-15T20:08:28.810Z,58.80
2018-07-15T20:10:55.723Z,58.80
2018-07-15T20:13:22.675Z,58.80
2018-07-15T20:15:49.619Z,58.90
2018-07-15T20:18:16.488Z,59.10
2018-07-15T20:20:43.683Z,59.40
2018-07-15T20:23:10.602Z,59.30
2018-07-15T20:25:37.466Z,59.40
2018-07-15T20:28:04.371Z,59.60
2018-07-15T20:30:31.235Z,59.80
2018-07-15T20:32:58.143Z,60.00
2018-07-15T20:35:25.348Z,60.90
2018-07-15T20:37:52.544Z,61.00
2018-07-15T20:40:19.420Z,61.20
2018-07-15T20:42:46.343Z,61.30
2018-07-15T20:45:13.216Z,61.70
2018-07-15T20:47:40.132Z,62.40
2018-07-15T20:50:07.017Z,63.00
2018-07-15T20:52:33.963Z,63.40
2018-07-15T20:55:00.849Z,63.80
2018-07-15T20:57:27.774Z,64.10
2018-07-15T20:59:54.648Z,64.70
2018-07-15T21:02:21.691Z,64.90
2018-07-15T21:04:48.567Z,65.20
2018-07-15T21:07:15.562Z,65.40
2018-07-15T21:09:42.849Z,65.50
2018-07-15T21:12:10.028Z,65.70
2018-07-15T21:14:36.939Z,66.40
2018-07-15T21:17:03.891Z,66.80
2018-07-15T21:19:30.805Z,67.40
2018-07-15T21:21:57.676Z,67.90
2018-07-15T21:24:24.590Z,67.80
2018-07-15T21:26:51.479Z,68.20
2018-07-15T21:29:18.400Z,68.40
2018-07-15T21:31:45.318Z,68.60
2018-07-15T21:34:12.550Z,68.80
2018-07-15T21:36:39.424Z,69.10
2018-07-15T21:39:06.581Z,69.50
2018-07-15T21:41:33.479Z,69.60
2018-07-15T21:44:00.406Z,69.80
2018-07-15T21:46:27.283Z,70.20
2018-07-15T21:48:54.197Z,70.70
2018-07-15T21:51:21.122Z,70.90
2018-07-15T21:53:48.011Z,71.30
2018-07-15T21:56:14.948Z,71.50
2018-07-15T21:58:41.823Z,71.70
2018-07-15T22:01:08.739Z,72.30
2018-07-15T22:03:35.643Z,72.70
2018-07-15T22:06:02.567Z,73.30
2018-07-15T22:09:34.967Z,74.00
2018-07-15T22:12:02.123Z,74.20
2018-07-15T22:14:29.009Z,74.50
2018-07-15T22:16:55.916Z,75.00
2018-07-15T22:19:22.879Z,75.20
2018-07-15T22:21:49.964Z,75.40
2018-07-15T22:24:16.826Z,76.00
2018-07-15T22:26:43.739Z,76.70
2018-07-15T22:29:10.791Z,77.20
2018-07-15T22:31:38.203Z,77.70
2018-07-15T22:34:05.299Z,77.90
2018-07-15T22:36:32.876Z,78.40
2018-07-15T22:38:59.791Z,78.90
2018-07-15T22:41:26.658Z,79.20
2018-07-15T22:43:53.581Z,79.70
2018-07-15T22:46:20.487Z,80.00
2018-07-15T22:48:47.536Z,80.80
2018-07-15T22:51:14.456Z,81.10
2018-07-15T22:53:41.371Z,81.30
2018-07-15T22:56:08.292Z,81.90
2018-07-15T22:58:35.228Z,82.40
2018-07-15T23:01:02.119Z,82.80
2018-07-15T23:03:29.036Z,83.70
2018-07-15T23:06:02.147Z,84.20
2018-07-15T23:08:31.043Z,84.90
2018-07-15T23:10:57.951Z,85.40
2018-07-15T23:13:24.928Z,85.70
2018-07-15T23:15:52.029Z,86.60
2018-07-15T23:18:19.136Z,87.80
2018-07-15T23:20:46.739Z,87.90
2018-07-15T23:23:14.052Z,88.80
2018-07-15T23:25:40.967Z,89.60
2018-07-15T23:28:09.079Z,89.40
2018-07-15T23:30:36.676Z,90.00
2018-07-15T23:33:04.091Z,90.70
2018-07-15T23:35:31.242Z,91.30
2018-07-15T23:37:58.154Z,91.90
2018-07-15T23:40:25.237Z,92.50
2018-07-15T23:42:53.051Z,93.00
2018-07-15T23:45:20.192Z,93.20
2018-07-15T23:47:47.064Z,93.60
2018-07-15T23:50:13.988Z,94.10
2018-07-15T23:52:40.900Z,94.70
2018-07-15T23:55:07.771Z,95.00
2018-07-15T23:57:34.712Z,95.30
